Greenville, Illinois
Current Conditions -  °F | °C
As of 12:15 PM on Thursday 23 Oct 2014 (Local Time) from K3LF Reporting Station
Clear Clear  
Wind Chill: 56°   Ceiling: Unl
Heat Index: 56°   Visibility: 10mi
Dew Point: 42°   Wind: 13mph
Humidity: 59%   Direction: 200°SSW
Pressure: 30.2"   Gusts: NA
Location:  38.89°N, 89.41°W
Report Text: K3LF 231715Z AUTO 20011KT 10SM CLR 14/06 A3020 RMK AO2 T01350055
Loading
Personal Weather Stations






























Interactive Weather Map
Tropical Storm Tracking
New forecast layout! Learn more

10-Day Weather Forecast

Advertisements
Track Severe Weather on mobile